createdAt,value
2022-08-26T00:01:42.188Z,97986.47
2022-08-26T00:04:12.472Z,97989.47
2022-08-26T00:06:42.451Z,97961.22
2022-08-26T00:09:13.240Z,97975.22
2022-08-26T00:11:43.172Z,97990.91
2022-08-26T00:14:09.915Z,97985.47
2022-08-26T00:16:40.883Z,97975.34
2022-08-26T00:19:07.955Z,97979.41
2022-08-26T00:21:35.188Z,97961.06
2022-08-26T00:24:04.702Z,97974.63
2022-08-26T00:26:33.663Z,97983.69
2022-08-26T00:29:00.474Z,97984.03
2022-08-26T00:31:27.311Z,98002.00
2022-08-26T00:33:54.104Z,97981.28
2022-08-26T00:36:22.754Z,98001.13
2022-08-26T00:38:49.852Z,97965.75
2022-08-26T00:41:19.703Z,97977.69
2022-08-26T00:43:47.314Z,97990.09
2022-08-26T00:46:19.813Z,97974.63
2022-08-26T00:48:51.288Z,97992.94
2022-08-26T00:51:29.597Z,97992.44
2022-08-26T00:54:10.680Z,97999.00
2022-08-26T00:57:15.905Z,97994.22
2022-08-26T00:59:51.441Z,97978.16
2022-08-26T01:02:18.112Z,97997.25
2022-08-26T01:04:48.369Z,97998.28
2022-08-26T01:07:21.794Z,98004.38
2022-08-26T01:09:48.722Z,98002.91
2022-08-26T01:12:15.885Z,97984.13
2022-08-26T01:14:49.533Z,97991.53
2022-08-26T01:17:16.331Z,97978.66
2022-08-26T01:20:24.110Z,97998.88
2022-08-26T01:22:58.406Z,97996.28
2022-08-26T01:25:33.306Z,98009.31
2022-08-26T01:28:03.909Z,97989.34
2022-08-26T01:30:31.443Z,97987.88
2022-08-26T01:33:01.338Z,98014.47
2022-08-26T01:35:29.389Z,98005.94
2022-08-26T01:37:56.532Z,98000.22
2022-08-26T01:40:32.103Z,97984.59
2022-08-26T01:43:01.502Z,97980.84
2022-08-26T01:45:33.293Z,98001.34
2022-08-26T01:48:03.534Z,97992.34
2022-08-26T01:50:33.553Z,98006.50
2022-08-26T01:53:05.993Z,98008.38
2022-08-26T01:55:34.519Z,97985.22
2022-08-26T01:58:05.503Z,98013.06
2022-08-26T02:00:34.144Z,97995.53
2022-08-26T02:03:21.583Z,98012.81
2022-08-26T02:05:53.033Z,98013.16
2022-08-26T02:08:25.495Z,98007.06
2022-08-26T02:10:54.886Z,97987.06
2022-08-26T02:13:22.969Z,98000.72
2022-08-26T02:15:52.265Z,98014.59
2022-08-26T02:18:19.424Z,97996.56
2022-08-26T02:20:46.286Z,98001.59
2022-08-26T02:23:15.259Z,97995.16
2022-08-26T02:25:51.564Z,97989.66
2022-08-26T02:28:19.795Z,97990.13
2022-08-26T02:30:47.470Z,98011.41
2022-08-26T02:33:17.447Z,98002.84
2022-08-26T02:35:46.231Z,97996.09
2022-08-26T02:38:15.704Z,98011.44
2022-08-26T02:40:43.884Z,98010.97
2022-08-26T02:43:12.551Z,98011.22
2022-08-26T02:45:40.353Z,98000.53
2022-08-26T02:48:15.289Z,97987.75
2022-08-26T02:50:42.538Z,98016.59
2022-08-26T02:53:09.516Z,97980.19
2022-08-26T02:55:36.844Z,98005.69
2022-08-26T02:58:04.413Z,97998.78
2022-08-26T03:00:31.652Z,98002.91
2022-08-26T03:02:59.642Z,97984.84
2022-08-26T03:05:26.723Z,97981.53
2022-08-26T03:07:53.608Z,97999.13
2022-08-26T03:10:21.782Z,97995.38
2022-08-26T03:12:48.485Z,97977.97
2022-08-26T03:15:19.519Z,97992.69
2022-08-26T03:17:48.086Z,97993.75
2022-08-26T03:20:17.527Z,97984.59
2022-08-26T03:22:48.815Z,97981.81
2022-08-26T03:25:16.710Z,97993.31
2022-08-26T03:27:43.562Z,98002.91
2022-08-26T03:30:32.265Z,97998.44
2022-08-26T03:32:59.875Z,97998.22
2022-08-26T03:35:27.418Z,97979.59
2022-08-26T03:37:54.104Z,97999.13
2022-08-26T03:40:21.359Z,98008.38
2022-08-26T03:42:50.030Z,98007.94
2022-08-26T03:45:19.996Z,98005.47
2022-08-26T03:47:50.107Z,98011.31
2022-08-26T03:50:22.671Z,98013.78
2022-08-26T03:52:51.558Z,98009.00
2022-08-26T03:55:26.999Z,98008.25
2022-08-26T03:57:54.593Z,98011.66
2022-08-26T04:00:22.216Z,98008.63
2022-08-26T04:02:51.193Z,98008.03
2022-08-26T04:05:22.753Z,97981.22
2022-08-26T04:07:49.982Z,97983.22
2022-08-26T04:10:22.134Z,98001.72
2022-08-26T04:12:56.224Z,98010.13
2022-08-26T04:15:26.933Z,97981.81
2022-08-26T04:17:53.511Z,98009.66
2022-08-26T04:20:22.522Z,98006.63
2022-08-26T04:22:52.412Z,98006.28
2022-08-26T04:25:22.130Z,98011.78
2022-08-26T04:27:50.927Z,97985.19
2022-08-26T04:30:17.758Z,97976.28
2022-08-26T04:32:44.926Z,98004.53
2022-08-26T04:35:11.513Z,97999.13
2022-08-26T04:37:38.703Z,97990.84
2022-08-26T04:40:06.534Z,97996.78
2022-08-26T04:42:33.522Z,97988.50
2022-08-26T04:45:01.095Z,97998.56
2022-08-26T04:47:32.128Z,97995.53
2022-08-26T04:49:58.991Z,97994.00
2022-08-26T04:52:29.637Z,97986.63
2022-08-26T04:54:59.630Z,97973.50
2022-08-26T04:57:27.140Z,97951.84
2022-08-26T04:59:53.995Z,97996.44
2022-08-26T05:02:22.776Z,97996.09
2022-08-26T05:04:53.472Z,97965.66
2022-08-26T05:07:22.287Z,97979.72
2022-08-26T05:09:48.932Z,97993.63
2022-08-26T05:12:15.751Z,97974.91
2022-08-26T05:14:43.448Z,97974.19
2022-08-26T05:17:10.574Z,97968.13
2022-08-26T05:19:42.943Z,97987.56
2022-08-26T05:22:09.775Z,97993.53
2022-08-26T05:24:39.810Z,97984.88
2022-08-26T05:27:11.536Z,97987.44
2022-08-26T05:29:39.721Z,97981.34
2022-08-26T05:32:07.368Z,97979.13
2022-08-26T05:34:34.522Z,97979.47
2022-08-26T05:37:02.084Z,97987.44
2022-08-26T05:39:29.525Z,97992.13
2022-08-26T05:41:56.636Z,97969.75
2022-08-26T05:44:24.721Z,97989.66
2022-08-26T05:46:52.038Z,97974.66
2022-08-26T05:49:18.699Z,97983.44
2022-08-26T05:51:47.647Z,97994.56
2022-08-26T05:54:22.223Z,97992.00
2022-08-26T05:56:51.156Z,98001.38
2022-08-26T05:59:23.911Z,98006.16
2022-08-26T06:01:55.200Z,98003.25
2022-08-26T06:04:23.290Z,98003.81
2022-08-26T06:06:53.731Z,98010.38
2022-08-26T06:09:20.692Z,97995.03
2022-08-26T06:11:48.071Z,97993.66
2022-08-26T06:14:14.663Z,98010.38
2022-08-26T06:16:45.139Z,98026.91
2022-08-26T06:19:15.114Z,98004.66
2022-08-26T06:21:45.235Z,98006.03
2022-08-26T06:24:32.451Z,98020.13
2022-08-26T06:27:01.908Z,98027.72
2022-08-26T06:29:31.207Z,98030.78
2022-08-26T06:31:58.408Z,98041.06
2022-08-26T06:34:30.452Z,98037.31
2022-08-26T06:36:59.878Z,98035.38
2022-08-26T06:39:30.610Z,98024.16
2022-08-26T06:41:58.929Z,98026.84
2022-08-26T06:44:25.823Z,98032.31
2022-08-26T06:46:52.461Z,98028.38
2022-08-26T06:49:26.599Z,98023.59
2022-08-26T06:51:54.104Z,98039.84
2022-08-26T06:54:22.999Z,98027.34
2022-08-26T06:56:51.949Z,98043.50
2022-08-26T06:59:21.941Z,98039.16
2022-08-26T07:01:49.628Z,98042.88
2022-08-26T07:04:20.128Z,98046.41
2022-08-26T07:06:52.702Z,98044.69
2022-08-26T07:09:22.055Z,98036.91
2022-08-26T07:11:49.357Z,98041.16
2022-08-26T07:14:16.843Z,98049.19
2022-08-26T07:16:48.786Z,98022.28
2022-08-26T07:19:16.664Z,98014.41
2022-08-26T07:21:46.250Z,98044.66
2022-08-26T07:24:14.023Z,98049.13
2022-08-26T07:26:43.170Z,98016.13
2022-08-26T07:29:12.485Z,98045.75
2022-08-26T07:31:42.381Z,98042.34
2022-08-26T07:34:10.824Z,98041.84
2022-08-26T07:36:37.838Z,98030.50
2022-08-26T07:39:05.389Z,98025.31
2022-08-26T07:41:31.967Z,98041.81
2022-08-26T07:43:58.677Z,98035.66
2022-08-26T07:46:27.072Z,98039.59
2022-08-26T07:48:57.720Z,98046.72
2022-08-26T07:51:25.065Z,98022.25
2022-08-26T07:53:54.902Z,98041.75
2022-08-26T07:56:25.111Z,98035.03
2022-08-26T07:58:53.574Z,98040.84
2022-08-26T08:01:23.552Z,98035.47
2022-08-26T08:03:53.870Z,98039.81
2022-08-26T08:06:27.320Z,98023.66
2022-08-26T08:08:56.138Z,98042.06
2022-08-26T08:11:24.142Z,98041.34
2022-08-26T08:13:56.474Z,98026.31
2022-08-26T08:16:25.078Z,98051.25
2022-08-26T08:18:53.412Z,98040.47
2022-08-26T08:21:23.878Z,98046.72
2022-08-26T08:23:55.480Z,98048.66
2022-08-26T08:26:24.099Z,98031.22
2022-08-26T08:28:54.718Z,98042.25
2022-08-26T08:31:56.704Z,98028.72
2022-08-26T08:34:16.797Z,98042.59
2022-08-26T08:36:46.345Z,98044.59
2022-08-26T08:39:13.489Z,98047.22
2022-08-26T08:42:19.141Z,98047.06
2022-08-26T08:44:52.839Z,98042.91
2022-08-26T08:47:36.059Z,98047.16
2022-08-26T08:50:21.879Z,98043.44
2022-08-26T08:53:17.525Z,98023.56
2022-08-26T08:56:06.318Z,98039.38
2022-08-26T08:59:08.090Z,98046.50
2022-08-26T09:02:05.490Z,98046.75
2022-08-26T09:04:33.046Z,98044.28
2022-08-26T09:07:02.638Z,98051.31
2022-08-26T09:09:40.966Z,98047.25
2022-08-26T09:12:14.892Z,98046.28
2022-08-26T09:14:45.812Z,98052.03
2022-08-26T09:17:22.563Z,98042.59
2022-08-26T09:19:58.640Z,98047.41
2022-08-26T09:22:34.544Z,98043.38
2022-08-26T09:25:01.897Z,98052.56
2022-08-26T09:27:42.270Z,98052.75
2022-08-26T09:30:12.488Z,98056.00
2022-08-26T09:32:39.895Z,98054.81
2022-08-26T09:35:23.157Z,98047.47
2022-08-26T09:40:36.105Z,98046.19
2022-08-26T09:43:22.375Z,98050.13
2022-08-26T09:45:59.506Z,98041.16
2022-08-26T09:48:35.432Z,98045.56
2022-08-26T09:51:07.221Z,98034.75
2022-08-26T09:53:47.555Z,98041.47
2022-08-26T09:56:25.932Z,98045.13
2022-08-26T09:58:56.633Z,98032.72
2022-08-26T10:01:23.183Z,98045.06
2022-08-26T10:03:51.767Z,98028.50
2022-08-26T10:06:21.112Z,98024.56
2022-08-26T10:08:54.154Z,98015.59
2022-08-26T10:11:39.699Z,98018.66
2022-08-26T10:14:15.746Z,98015.38
2022-08-26T10:16:52.714Z,98007.69
2022-08-26T10:19:29.078Z,98007.69
2022-08-26T10:22:04.958Z,98015.31
2022-08-26T10:24:38.144Z,98012.97
2022-08-26T10:27:16.485Z,98008.63
2022-08-26T10:29:50.493Z,98010.53
2022-08-26T10:32:32.231Z,98008.69
2022-08-26T10:35:00.292Z,98005.66
2022-08-26T10:37:36.431Z,98014.19
2022-08-26T10:40:27.377Z,98005.47
2022-08-26T10:43:11.092Z,98008.69
2022-08-26T10:45:46.849Z,98002.03
2022-08-26T10:48:19.096Z,98004.56
2022-08-26T10:50:48.082Z,97990.44
2022-08-26T10:53:17.690Z,98005.44
2022-08-26T10:56:18.861Z,98000.00
2022-08-26T10:58:57.718Z,98001.63
2022-08-26T11:02:07.498Z,97998.97
2022-08-26T11:04:56.129Z,98000.34
2022-08-26T11:07:32.616Z,97998.75
2022-08-26T11:10:01.880Z,97999.63
2022-08-26T11:12:37.567Z,98001.78
2022-08-26T11:15:06.976Z,97993.63
2022-08-26T11:17:44.455Z,97996.66
2022-08-26T11:20:23.778Z,97995.03
2022-08-26T11:22:52.804Z,97992.56
2022-08-26T11:25:30.048Z,97986.84
2022-08-26T11:27:59.860Z,97991.75
2022-08-26T11:30:40.381Z,97980.03
2022-08-26T11:33:08.164Z,97983.81
2022-08-26T11:35:34.803Z,97982.47
2022-08-26T11:38:21.642Z,97989.31
2022-08-26T11:41:06.915Z,97989.88
2022-08-26T11:43:33.971Z,97980.09
2022-08-26T11:46:02.794Z,97980.88
2022-08-26T11:48:33.533Z,97980.53
2022-08-26T11:51:09.670Z,97976.69
2022-08-26T11:53:43.076Z,97977.19
2022-08-26T11:56:15.764Z,97973.03
2022-08-26T11:58:44.654Z,97972.41
2022-08-26T12:01:21.796Z,97967.44
2022-08-26T12:03:51.739Z,97967.56
2022-08-26T12:06:46.573Z,97974.22
2022-08-26T12:09:29.068Z,97969.38
2022-08-26T12:12:14.263Z,97975.25
2022-08-26T12:14:42.116Z,97968.19
2022-08-26T12:17:26.653Z,97966.53
2022-08-26T12:19:56.551Z,97953.28
2022-08-26T12:22:30.516Z,97965.59
2022-08-26T12:25:00.656Z,97976.22
2022-08-26T12:27:28.960Z,97969.66
2022-08-26T12:30:12.225Z,97963.69
2022-08-26T12:32:52.859Z,97962.25
2022-08-26T12:35:25.762Z,97953.09
2022-08-26T12:37:54.321Z,97939.31
2022-08-26T12:40:26.870Z,97951.97
2022-08-26T12:43:00.437Z,97938.81
2022-08-26T12:45:43.586Z,97949.63
2022-08-26T12:48:24.455Z,97934.69
2022-08-26T12:50:52.252Z,97917.69
2022-08-26T12:53:27.993Z,97929.44
2022-08-26T12:55:57.284Z,97920.09
2022-08-26T12:58:23.831Z,97929.16
2022-08-26T13:01:04.147Z,97926.59
2022-08-26T13:03:37.528Z,97922.13
2022-08-26T13:06:29.625Z,97919.50
2022-08-26T13:08:57.857Z,97916.72
2022-08-26T13:11:39.791Z,97914.97
2022-08-26T13:14:10.942Z,97923.66
2022-08-26T13:16:39.645Z,97915.81
2022-08-26T13:19:10.193Z,97913.44
2022-08-26T13:21:55.345Z,97918.66
2022-08-26T13:24:34.269Z,97910.31
2022-08-26T13:27:02.096Z,97906.28
2022-08-26T13:29:29.046Z,97900.22
2022-08-26T13:31:58.329Z,97907.31
2022-08-26T13:34:28.147Z,97887.72
2022-08-26T13:36:58.455Z,97883.44
2022-08-26T13:39:28.183Z,97900.59
2022-08-26T13:41:58.165Z,97891.56
2022-08-26T13:44:25.335Z,97892.69
2022-08-26T13:46:52.048Z,97884.50
2022-08-26T13:49:18.629Z,97868.59
2022-08-26T13:51:45.204Z,97871.63
2022-08-26T13:54:11.840Z,97865.50
2022-08-26T13:56:38.472Z,97847.97
2022-08-26T13:59:06.571Z,97846.28
2022-08-26T14:01:34.562Z,97853.75
2022-08-26T14:04:03.125Z,97849.06
2022-08-26T14:06:30.298Z,97843.91
2022-08-26T14:08:57.260Z,97840.28
2022-08-26T14:11:25.168Z,97841.59
2022-08-26T14:13:52.394Z,97855.50
2022-08-26T14:16:31.637Z,97841.75
2022-08-26T14:19:01.266Z,97850.66
2022-08-26T14:21:31.026Z,97845.53
2022-08-26T14:24:01.156Z,97858.44
2022-08-26T14:26:30.886Z,97850.59
2022-08-26T14:28:58.976Z,97849.53
2022-08-26T14:31:27.126Z,97842.66
2022-08-26T14:33:54.772Z,97842.44
2022-08-26T14:36:33.574Z,97845.38
2022-08-26T14:39:04.908Z,97828.94
2022-08-26T14:41:33.353Z,97832.47
2022-08-26T14:44:10.347Z,97828.25
2022-08-26T14:46:46.207Z,97826.31
2022-08-26T14:49:13.359Z,97814.03
2022-08-26T14:51:41.059Z,97822.25
2022-08-26T14:54:11.908Z,97818.72
2022-08-26T14:56:46.540Z,97822.41
2022-08-26T14:59:19.117Z,97811.25
2022-08-26T15:01:49.480Z,97823.88
2022-08-26T15:04:16.629Z,97803.47
2022-08-26T15:06:43.330Z,97806.28
2022-08-26T15:09:10.871Z,97818.72
2022-08-26T15:11:37.728Z,97819.19
2022-08-26T15:14:18.937Z,97801.75
2022-08-26T15:16:52.851Z,97809.34
2022-08-26T15:19:20.980Z,97808.22
2022-08-26T15:21:47.820Z,97795.75
2022-08-26T15:24:17.000Z,97805.00
2022-08-26T15:26:43.826Z,97809.31
2022-08-26T15:29:10.645Z,97798.00
2022-08-26T15:31:37.306Z,97805.75
2022-08-26T15:34:13.343Z,97801.53
2022-08-26T15:36:44.784Z,97799.88
2022-08-26T15:39:12.067Z,97800.16
2022-08-26T15:41:39.283Z,97795.44
2022-08-26T15:44:07.462Z,97785.94
2022-08-26T15:46:35.003Z,97789.59
2022-08-26T15:49:03.100Z,97795.78
2022-08-26T15:51:32.985Z,97787.59
2022-08-26T15:54:02.671Z,97790.50
2022-08-26T15:56:34.353Z,97785.66
2022-08-26T15:59:02.433Z,97763.22
2022-08-26T16:01:31.748Z,97774.56
2022-08-26T16:04:01.752Z,97776.56
2022-08-26T16:06:33.903Z,97774.28
2022-08-26T16:09:00.976Z,97777.63
2022-08-26T16:11:28.764Z,97765.50
2022-08-26T16:13:55.717Z,97772.44
2022-08-26T16:16:23.695Z,97753.50
2022-08-26T16:18:50.549Z,97772.50
2022-08-26T16:21:23.238Z,97766.75
2022-08-26T16:23:50.931Z,97764.00
2022-08-26T16:26:21.622Z,97768.34
2022-08-26T16:28:48.205Z,97773.88
2022-08-26T16:31:15.518Z,97771.34
2022-08-26T16:33:43.535Z,97767.72
2022-08-26T16:36:16.658Z,97774.03
2022-08-26T16:38:50.012Z,97776.16
2022-08-26T16:41:29.268Z,97760.47
2022-08-26T16:43:58.697Z,97774.22
2022-08-26T16:46:26.293Z,97767.13
2022-08-26T16:48:58.699Z,97771.81
2022-08-26T16:51:27.829Z,97753.97
2022-08-26T16:53:59.291Z,97769.97
2022-08-26T16:56:33.440Z,97774.31
2022-08-26T16:59:01.753Z,97771.19
2022-08-26T17:01:31.367Z,97762.31
2022-08-26T17:04:01.230Z,97766.13
2022-08-26T17:06:28.009Z,97771.50
2022-08-26T17:08:54.597Z,97768.69
2022-08-26T17:11:21.179Z,97755.91
2022-08-26T17:13:47.792Z,97752.56
2022-08-26T17:16:15.266Z,97755.00
2022-08-26T17:18:41.977Z,97758.00
2022-08-26T17:21:11.291Z,97763.75
2022-08-26T17:23:41.198Z,97757.91
2022-08-26T17:26:09.142Z,97760.66
2022-08-26T17:28:36.048Z,97770.06
2022-08-26T17:31:03.005Z,97749.56
2022-08-26T17:33:30.183Z,97746.72
2022-08-26T17:35:59.280Z,97736.19
2022-08-26T17:38:29.092Z,97753.03
2022-08-26T17:40:59.672Z,97736.00
2022-08-26T17:43:26.782Z,97756.31
2022-08-26T17:46:07.169Z,97747.13
2022-08-26T17:48:35.540Z,97736.53
2022-08-26T17:51:07.902Z,97745.72
2022-08-26T17:53:34.435Z,97763.91
2022-08-26T17:56:01.494Z,97748.41
2022-08-26T17:58:28.887Z,97746.78
2022-08-26T18:00:55.715Z,97761.69
2022-08-26T18:03:22.929Z,97746.72
2022-08-26T18:05:53.011Z,97754.25
2022-08-26T18:08:20.190Z,97772.69
2022-08-26T18:10:47.442Z,97772.66
2022-08-26T18:13:17.470Z,97782.13
2022-08-26T18:15:46.305Z,97781.31
2022-08-26T18:18:14.555Z,97781.84
2022-08-26T18:20:43.325Z,97784.78
2022-08-26T18:23:10.667Z,97764.91
2022-08-26T18:25:42.050Z,97792.09
2022-08-26T18:28:09.363Z,97794.50
2022-08-26T18:30:36.288Z,97787.38
2022-08-26T18:33:03.123Z,97800.38
2022-08-26T18:35:32.298Z,97795.97
2022-08-26T18:38:10.486Z,97803.53
2022-08-26T18:40:39.882Z,97804.81
2022-08-26T18:43:06.562Z,97813.41
2022-08-26T18:45:33.333Z,97811.44
2022-08-26T18:48:01.829Z,97804.03
2022-08-26T18:50:28.760Z,97817.50
2022-08-26T18:52:55.335Z,97816.56
2022-08-26T18:55:22.122Z,97808.06
2022-08-26T18:57:49.551Z,97802.84
2022-08-26T19:00:18.789Z,97815.56
2022-08-26T19:02:51.838Z,97835.72
2022-08-26T19:05:19.345Z,97827.22
2022-08-26T19:07:46.141Z,97826.34
2022-08-26T19:10:14.681Z,97833.38
2022-08-26T19:12:41.260Z,97844.38
2022-08-26T19:15:08.099Z,97844.03
2022-08-26T19:17:34.651Z,97842.03
2022-08-26T19:20:03.815Z,97828.66
2022-08-26T19:22:32.551Z,97847.13
2022-08-26T19:24:59.102Z,97831.00
2022-08-26T19:27:25.827Z,97829.81
2022-08-26T19:29:52.504Z,97841.47
2022-08-26T19:32:24.186Z,97836.28
2022-08-26T19:34:54.426Z,97844.06
2022-08-26T19:37:21.752Z,97838.63
2022-08-26T19:39:48.708Z,97849.69
2022-08-26T19:42:16.490Z,97850.72
2022-08-26T19:45:02.816Z,97844.91
2022-08-26T19:47:29.510Z,97859.78
2022-08-26T19:49:56.660Z,97856.47
2022-08-26T19:52:24.416Z,97840.94
2022-08-26T19:54:56.601Z,97853.69
2022-08-26T19:57:23.159Z,97859.03
2022-08-26T19:59:49.835Z,97866.22
2022-08-26T20:02:16.771Z,97867.81
2022-08-26T20:04:44.427Z,97854.91
2022-08-26T20:07:18.089Z,97871.25
2022-08-26T20:09:46.366Z,97863.88
2022-08-26T20:12:12.944Z,97845.56
2022-08-26T20:14:39.530Z,97879.75
2022-08-26T20:17:06.262Z,97876.22
2022-08-26T20:19:51.961Z,97868.97
2022-08-26T20:22:19.490Z,97878.78
2022-08-26T20:24:47.177Z,97878.72
2022-08-26T20:27:15.452Z,97877.56
2022-08-26T20:29:43.112Z,97866.84
2022-08-26T20:32:12.111Z,97873.13
2022-08-26T20:34:40.014Z,97879.00
2022-08-26T20:37:08.452Z,97875.75
2022-08-26T20:39:35.188Z,97865.25
2022-08-26T20:42:05.718Z,97858.94
2022-08-26T20:44:47.351Z,97851.34
2022-08-26T20:47:21.712Z,97861.81
2022-08-26T20:49:48.327Z,97877.50
2022-08-26T20:52:19.766Z,97879.78
2022-08-26T20:54:46.357Z,97883.53
2022-08-26T20:57:14.472Z,97884.25
2022-08-26T20:59:41.092Z,97859.63
2022-08-26T21:02:08.027Z,97877.53
2022-08-26T21:04:37.613Z,97868.00
2022-08-26T21:07:04.462Z,97883.22
2022-08-26T21:09:32.627Z,97875.66
2022-08-26T21:11:59.261Z,97873.91
2022-08-26T21:14:26.184Z,97868.03
2022-08-26T21:16:53.389Z,97862.44
2022-08-26T21:19:20.270Z,97864.31
2022-08-26T21:21:48.301Z,97864.53
2022-08-26T21:24:15.743Z,97890.28
2022-08-26T21:26:42.652Z,97854.28
2022-08-26T21:29:09.974Z,97887.66
2022-08-26T21:31:45.487Z,97884.16
2022-08-26T21:34:14.003Z,97884.97
2022-08-26T21:36:40.644Z,97868.25
2022-08-26T21:39:11.503Z,97875.59
2022-08-26T21:41:39.762Z,97880.41
2022-08-26T21:44:08.037Z,97883.25
2022-08-26T21:46:37.334Z,97885.94
2022-08-26T21:49:07.607Z,97869.22
2022-08-26T21:51:40.239Z,97888.28
2022-08-26T21:54:11.091Z,97879.50
2022-08-26T21:56:42.197Z,97876.81
2022-08-26T21:59:09.363Z,97874.94
2022-08-26T22:01:38.325Z,97853.41
2022-08-26T22:04:09.247Z,97856.81
2022-08-26T22:06:41.889Z,97883.16
2022-08-26T22:09:12.587Z,97875.28
2022-08-26T22:11:39.514Z,97875.63
2022-08-26T22:14:06.193Z,97860.19
2022-08-26T22:16:32.917Z,97869.31
2022-08-26T22:18:59.828Z,97858.53
2022-08-26T22:21:28.432Z,97851.41
2022-08-26T22:23:58.097Z,97877.50
2022-08-26T22:26:29.091Z,97876.56
2022-08-26T22:28:58.840Z,97849.38
2022-08-26T22:31:37.505Z,97874.78
2022-08-26T22:34:10.616Z,97875.22
2022-08-26T22:36:43.299Z,97881.41
2022-08-26T22:39:17.411Z,97883.88
2022-08-26T22:41:45.024Z,97878.38
2022-08-26T22:44:12.540Z,97870.03
2022-08-26T22:46:40.664Z,97875.78
2022-08-26T22:49:11.129Z,97880.78
2022-08-26T22:51:38.125Z,97875.72
2022-08-26T22:54:05.852Z,97876.56
2022-08-26T22:56:32.484Z,97848.31
2022-08-26T22:58:59.093Z,97877.91
2022-08-26T23:01:25.963Z,97852.69
2022-08-26T23:03:52.846Z,97852.69
2022-08-26T23:06:19.480Z,97860.56
2022-08-26T23:08:47.085Z,97861.75
2022-08-26T23:11:15.012Z,97865.16
2022-08-26T23:13:44.991Z,97872.28
2022-08-26T23:16:14.493Z,97854.41
2022-08-26T23:18:42.188Z,97845.31
2022-08-26T23:21:12.510Z,97877.75
2022-08-26T23:23:39.299Z,97860.91
2022-08-26T23:26:07.821Z,97861.47
2022-08-26T23:28:36.468Z,97841.50
2022-08-26T23:31:03.345Z,97859.28
2022-08-26T23:33:49.990Z,97824.16
2022-08-26T23:36:18.144Z,97846.31
2022-08-26T23:38:48.152Z,97847.50
2022-08-26T23:41:20.141Z,97844.56
2022-08-26T23:43:46.750Z,97838.97
2022-08-26T23:46:16.499Z,97810.88
2022-08-26T23:48:46.293Z,97847.63
2022-08-26T23:51:31.742Z,97842.84
2022-08-26T23:53:58.436Z,97828.44
2022-08-26T23:56:25.367Z,97811.25
2022-08-26T23:58:53.704Z,97818.63
